createdAt,value
2022-08-03T00:01:32.055Z,4.55
2022-08-03T00:03:59.724Z,3.80
2022-08-03T00:06:27.461Z,3.72
2022-08-03T00:08:55.042Z,3.92
2022-08-03T00:11:22.705Z,3.95
2022-08-03T00:13:50.748Z,3.90
2022-08-03T00:16:20.503Z,3.97
2022-08-03T00:18:50.714Z,3.72
2022-08-03T00:21:18.379Z,4.05
2022-08-03T00:23:52.087Z,3.90
2022-08-03T00:26:20.639Z,3.88
2022-08-03T00:28:48.610Z,4.10
2022-08-03T00:31:16.230Z,3.80
2022-08-03T00:33:59.132Z,4.00
2022-08-03T00:36:28.182Z,3.92
2022-08-03T00:38:56.107Z,3.60
2022-08-03T00:41:23.868Z,3.90
2022-08-03T00:43:52.009Z,3.80
2022-08-03T00:46:22.181Z,3.90
2022-08-03T00:48:51.517Z,3.70
2022-08-03T00:51:19.558Z,3.95
2022-08-03T00:53:47.397Z,3.95
2022-08-03T00:56:15.453Z,3.72
2022-08-03T00:58:45.961Z,3.58
2022-08-03T01:01:13.924Z,3.30
2022-08-03T01:03:42.146Z,3.50
2022-08-03T01:06:19.190Z,3.90
2022-08-03T01:08:53.279Z,3.60
2022-08-03T01:11:33.110Z,3.72
2022-08-03T01:14:18.675Z,3.60
2022-08-03T01:16:57.061Z,3.42
2022-08-03T01:19:47.046Z,3.90
2022-08-03T01:22:38.083Z,3.95
2022-08-03T01:25:11.044Z,3.78
2022-08-03T01:27:53.535Z,3.72
2022-08-03T01:30:26.835Z,4.13
2022-08-03T01:33:01.645Z,4.32
2022-08-03T01:35:38.834Z,3.90
2022-08-03T01:38:12.543Z,3.95
2022-08-03T01:40:42.219Z,3.70
2022-08-03T01:43:12.491Z,3.78
2022-08-03T01:45:45.061Z,3.70
2022-08-03T01:48:16.779Z,4.00
2022-08-03T01:50:45.989Z,3.63
2022-08-03T01:53:16.418Z,3.63
2022-08-03T01:55:45.231Z,3.85
2022-08-03T01:58:16.081Z,3.58
2022-08-03T02:00:47.763Z,3.42
2022-08-03T02:03:17.465Z,3.60
2022-08-03T02:05:48.032Z,3.50
2022-08-03T02:08:18.222Z,3.50
2022-08-03T02:10:46.978Z,3.70
2022-08-03T02:13:17.462Z,3.60
2022-08-03T02:15:48.421Z,3.38
2022-08-03T02:18:16.866Z,3.50
2022-08-03T02:20:45.514Z,3.72
2022-08-03T02:23:13.458Z,3.88
2022-08-03T02:25:45.541Z,3.53
2022-08-03T02:28:18.278Z,3.53
2022-08-03T02:30:53.944Z,3.50
2022-08-03T02:33:27.888Z,3.42
2022-08-03T02:35:58.131Z,3.85
2022-08-03T02:38:32.085Z,3.40
2022-08-03T02:41:02.133Z,3.67
2022-08-03T02:43:39.066Z,3.72
2022-08-03T02:46:26.000Z,3.70
2022-08-03T02:48:56.002Z,3.90
2022-08-03T02:51:25.471Z,3.90
2022-08-03T02:53:55.574Z,4.13
2022-08-03T02:56:24.730Z,3.65
2022-08-03T02:58:53.378Z,3.92
2022-08-03T03:01:23.383Z,3.75
2022-08-03T03:03:52.926Z,4.00
2022-08-03T03:06:21.299Z,3.55
2022-08-03T03:08:55.527Z,4.00
2022-08-03T03:11:26.667Z,3.95
2022-08-03T03:13:56.699Z,4.00
2022-08-03T03:16:27.190Z,4.05
2022-08-03T03:18:55.899Z,4.05
2022-08-03T03:21:24.617Z,3.63
2022-08-03T03:23:54.215Z,4.00
2022-08-03T03:26:21.990Z,3.78
2022-08-03T03:28:49.750Z,3.75
2022-08-03T03:31:18.595Z,3.60
2022-08-03T03:33:48.482Z,3.88
2022-08-03T03:36:16.342Z,3.78
2022-08-03T03:38:44.343Z,3.80
2022-08-03T03:41:12.226Z,3.92
2022-08-03T03:43:40.045Z,3.92
2022-08-03T03:46:07.921Z,3.80
2022-08-03T03:48:35.578Z,3.97
2022-08-03T03:51:04.828Z,4.10
2022-08-03T03:53:32.429Z,4.15
2022-08-03T03:56:02.349Z,3.90
2022-08-03T03:58:31.985Z,4.30
2022-08-03T04:00:59.828Z,4.70
2022-08-03T04:03:27.595Z,4.55
2022-08-03T04:06:12.975Z,4.90
2022-08-03T04:08:59.339Z,4.60
2022-08-03T04:11:31.517Z,4.72
2022-08-03T04:14:04.322Z,4.53
2022-08-03T04:16:34.661Z,4.47
2022-08-03T04:19:06.983Z,4.47
2022-08-03T04:21:38.912Z,4.65
2022-08-03T04:26:40.303Z,4.72
2022-08-03T04:29:10.051Z,4.78
2022-08-03T04:31:40.295Z,4.47
2022-08-03T04:34:08.669Z,4.57
2022-08-03T04:36:40.934Z,4.13
2022-08-03T04:39:26.430Z,4.40
2022-08-03T04:42:04.429Z,3.80
2022-08-03T04:44:38.950Z,4.40
2022-08-03T04:47:06.906Z,4.28
2022-08-03T04:49:37.015Z,4.22
2022-08-03T04:52:05.847Z,4.25
2022-08-03T04:54:42.323Z,4.50
2022-08-03T04:57:10.983Z,4.20
2022-08-03T04:59:59.580Z,4.38
2022-08-03T05:02:29.610Z,4.20
2022-08-03T05:04:57.260Z,4.45
2022-08-03T05:07:25.370Z,4.45
2022-08-03T05:10:01.724Z,4.20
2022-08-03T05:12:33.932Z,4.93
2022-08-03T05:15:02.263Z,4.78
2022-08-03T05:17:30.067Z,5.00
2022-08-03T05:19:57.867Z,4.70
2022-08-03T05:22:25.536Z,4.72
2022-08-03T05:24:54.505Z,4.90
2022-08-03T05:27:22.113Z,4.90
2022-08-03T05:29:51.941Z,5.82
2022-08-03T05:32:20.285Z,4.75
2022-08-03T05:34:48.066Z,5.05
2022-08-03T05:37:16.058Z,5.18
2022-08-03T05:39:43.682Z,5.10
2022-08-03T05:42:12.673Z,5.35
2022-08-03T05:44:40.270Z,4.78
2022-08-03T05:47:08.607Z,5.43
2022-08-03T05:49:36.300Z,5.20
2022-08-03T05:52:21.863Z,5.68
2022-08-03T05:54:55.920Z,5.90
2022-08-03T05:57:26.835Z,4.97
2022-08-03T05:59:58.378Z,5.90
2022-08-03T06:02:26.682Z,5.50
2022-08-03T06:04:54.645Z,5.97
2022-08-03T06:07:22.367Z,5.65
2022-08-03T06:10:37.578Z,5.68
2022-08-03T06:12:41.134Z,5.72
2022-08-03T06:15:11.566Z,5.63
2022-08-03T06:17:46.055Z,5.72
2022-08-03T06:20:13.951Z,5.57
2022-08-03T06:22:50.451Z,5.85
2022-08-03T06:25:19.370Z,5.47
2022-08-03T06:27:50.402Z,5.57
2022-08-03T06:30:21.260Z,4.75
2022-08-03T06:32:51.748Z,4.50
2022-08-03T06:35:20.705Z,4.53
2022-08-03T06:37:50.343Z,4.82
2022-08-03T06:40:24.311Z,4.15
2022-08-03T06:42:53.861Z,4.00
2022-08-03T06:45:21.686Z,4.03
2022-08-03T06:47:49.282Z,3.50
2022-08-03T06:50:19.008Z,3.38
2022-08-03T06:52:48.315Z,3.50
2022-08-03T06:55:15.914Z,3.80
2022-08-03T06:57:43.998Z,3.20
2022-08-03T07:00:14.531Z,3.05
2022-08-03T07:02:42.774Z,3.00
2022-08-03T07:05:11.112Z,2.90
2022-08-03T07:07:39.234Z,3.00
2022-08-03T07:10:08.309Z,2.78
2022-08-03T07:12:36.983Z,2.83
2022-08-03T07:15:05.845Z,3.00
2022-08-03T07:17:36.925Z,2.45
2022-08-03T07:20:08.012Z,2.70
2022-08-03T07:22:36.061Z,2.60
2022-08-03T07:25:03.945Z,2.40
2022-08-03T07:27:33.718Z,2.67
2022-08-03T07:30:01.377Z,2.38
2022-08-03T07:32:31.252Z,2.33
2022-08-03T07:35:01.341Z,2.25
2022-08-03T07:37:30.366Z,2.22
2022-08-03T07:39:58.467Z,2.20
2022-08-03T07:42:26.184Z,2.40
2022-08-03T07:44:53.837Z,2.30
2022-08-03T07:47:22.651Z,2.28
2022-08-03T07:49:50.858Z,2.40
2022-08-03T07:52:37.438Z,2.20
2022-08-03T07:55:06.288Z,2.20
2022-08-03T07:57:34.262Z,2.72
2022-08-03T08:00:02.834Z,2.10
2022-08-03T08:02:39.677Z,2.45
2022-08-03T08:05:07.955Z,2.30
2022-08-03T08:07:36.900Z,2.42
2022-08-03T08:10:05.685Z,2.20
2022-08-03T08:12:33.356Z,2.17
2022-08-03T08:15:01.203Z,2.38
2022-08-03T08:17:28.882Z,2.03
2022-08-03T08:19:56.566Z,1.88
2022-08-03T08:22:30.232Z,2.20
2022-08-03T08:25:01.034Z,2.40
2022-08-03T08:28:29.647Z,2.10
2022-08-03T08:30:19.467Z,2.08
2022-08-03T08:32:47.651Z,2.50
2022-08-03T08:35:16.084Z,2.42
2022-08-03T08:37:44.245Z,2.60
2022-08-03T08:40:21.590Z,2.20
2022-08-03T08:42:58.551Z,2.70
2022-08-03T08:45:27.650Z,2.53
2022-08-03T08:48:00.354Z,2.40
2022-08-03T08:50:30.922Z,2.20
2022-08-03T08:53:03.023Z,2.20
2022-08-03T08:55:58.583Z,1.98
2022-08-03T08:58:23.238Z,2.33
2022-08-03T09:00:52.002Z,2.53
2022-08-03T09:03:28.942Z,2.20
2022-08-03T09:05:59.223Z,2.50
2022-08-03T09:08:27.184Z,2.60
2022-08-03T09:10:56.144Z,2.10
2022-08-03T09:13:23.860Z,2.30
2022-08-03T09:16:10.875Z,2.40
2022-08-03T09:18:38.822Z,2.60
2022-08-03T09:21:37.278Z,2.40
2022-08-03T09:24:13.103Z,2.67
2022-08-03T09:26:53.601Z,2.60
2022-08-03T09:29:22.135Z,2.40
2022-08-03T09:31:49.772Z,2.70
2022-08-03T09:34:18.568Z,2.60
2022-08-03T09:36:47.626Z,2.63
2022-08-03T09:39:17.321Z,2.40
2022-08-03T09:41:48.105Z,2.70
2022-08-03T09:44:25.142Z,2.70
2022-08-03T09:46:56.143Z,2.70
2022-08-03T09:49:24.954Z,2.65
2022-08-03T09:52:32.867Z,2.70
2022-08-03T09:54:41.538Z,2.88
2022-08-03T09:57:21.703Z,2.83
2022-08-03T09:59:49.655Z,2.53
2022-08-03T10:02:25.316Z,2.58
2022-08-03T10:04:54.056Z,2.60
2022-08-03T10:07:23.522Z,2.30
2022-08-03T10:09:56.144Z,2.67
2022-08-03T10:12:25.895Z,2.42
2022-08-03T10:14:55.520Z,2.60
2022-08-03T10:17:24.875Z,2.55
2022-08-03T10:19:52.592Z,2.42
2022-08-03T10:22:23.889Z,2.95
2022-08-03T10:24:56.639Z,3.33
2022-08-03T10:27:27.903Z,2.80
2022-08-03T10:29:57.563Z,2.72
2022-08-03T10:32:31.511Z,2.80
2022-08-03T10:35:18.935Z,2.65
2022-08-03T10:37:57.162Z,2.50
2022-08-03T10:40:47.523Z,2.45
2022-08-03T10:43:20.805Z,2.55
2022-08-03T10:45:48.597Z,2.55
2022-08-03T10:48:17.341Z,2.80
2022-08-03T10:50:45.397Z,2.55
2022-08-03T10:53:14.739Z,2.63
2022-08-03T10:56:05.837Z,2.42
2022-08-03T10:58:56.925Z,2.70
2022-08-03T11:02:00.823Z,2.80
2022-08-03T11:04:30.633Z,2.50
2022-08-03T11:07:22.572Z,2.45
2022-08-03T11:09:51.976Z,2.55
2022-08-03T11:12:31.557Z,2.65
2022-08-03T11:15:07.368Z,2.45
2022-08-03T11:17:45.885Z,2.65
2022-08-03T11:20:47.899Z,2.50
2022-08-03T11:23:16.238Z,2.35
2022-08-03T11:26:16.130Z,2.40
2022-08-03T11:28:45.955Z,2.53
2022-08-03T11:31:50.759Z,2.58
2022-08-03T11:34:19.548Z,2.65
2022-08-03T11:37:23.146Z,2.55
2022-08-03T11:39:54.394Z,2.88
2022-08-03T11:42:48.207Z,2.53
2022-08-03T11:45:16.703Z,2.80
2022-08-03T11:47:50.481Z,2.50
2022-08-03T11:50:21.208Z,2.42
2022-08-03T11:52:49.987Z,2.70
2022-08-03T11:55:21.672Z,2.83
2022-08-03T11:59:02.642Z,2.30
2022-08-03T12:00:37.803Z,2.80
2022-08-03T12:03:09.517Z,2.60
2022-08-03T12:05:40.086Z,2.40
2022-08-03T12:08:08.819Z,2.50
2022-08-03T12:10:37.005Z,2.47
2022-08-03T12:14:30.064Z,2.45
2022-08-03T12:18:26.879Z,2.40
2022-08-03T12:21:05.553Z,2.30
2022-08-03T12:23:37.401Z,2.30
2022-08-03T12:26:07.739Z,2.80
2022-08-03T12:28:37.267Z,2.55
2022-08-03T12:31:09.172Z,2.70
2022-08-03T12:33:59.573Z,2.60
2022-08-03T12:36:28.318Z,2.67
2022-08-03T12:38:57.653Z,2.40
2022-08-03T12:41:30.949Z,2.53
2022-08-03T12:43:58.836Z,2.60
2022-08-03T12:46:31.696Z,2.70
2022-08-03T12:49:06.664Z,2.70
2022-08-03T12:51:36.046Z,2.72
2022-08-03T12:54:05.585Z,2.92
2022-08-03T12:56:33.388Z,2.90
2022-08-03T12:59:01.031Z,2.70
2022-08-03T13:01:37.656Z,2.60
2022-08-03T13:04:06.820Z,2.80
2022-08-03T13:06:34.578Z,2.70
2022-08-03T13:09:05.302Z,2.50
2022-08-03T13:11:58.079Z,2.70
2022-08-03T13:14:20.781Z,2.80
2022-08-03T13:16:49.551Z,2.47
2022-08-03T13:19:18.702Z,2.60
2022-08-03T13:22:01.732Z,2.90
2022-08-03T13:24:33.590Z,2.80
2022-08-03T13:27:58.819Z,2.50
2022-08-03T13:29:50.355Z,2.58
2022-08-03T13:32:18.095Z,2.50
2022-08-03T13:34:47.393Z,2.42
2022-08-03T13:37:15.477Z,2.40
2022-08-03T13:39:57.882Z,2.60
2022-08-03T13:42:28.709Z,2.60
2022-08-03T13:44:56.329Z,2.80
2022-08-03T13:47:24.120Z,2.47
2022-08-03T13:49:59.815Z,2.55
2022-08-03T13:52:30.749Z,3.13
2022-08-03T13:54:58.471Z,2.55
2022-08-03T13:58:06.522Z,2.70
2022-08-03T14:00:16.661Z,2.30
2022-08-03T14:03:02.829Z,2.30
2022-08-03T14:05:33.690Z,2.40
2022-08-03T14:08:04.821Z,2.35
2022-08-03T14:10:33.235Z,2.50
2022-08-03T14:13:01.219Z,2.30
2022-08-03T14:15:29.003Z,2.30
2022-08-03T14:17:58.745Z,2.03
2022-08-03T14:20:37.786Z,2.50
2022-08-03T14:23:08.955Z,2.83
2022-08-03T14:25:44.487Z,2.50
2022-08-03T14:28:20.873Z,2.30
2022-08-03T14:30:48.677Z,2.03
2022-08-03T14:33:16.708Z,1.88
2022-08-03T14:35:44.334Z,2.00
2022-08-03T14:38:13.379Z,2.25
2022-08-03T14:40:41.375Z,1.90
2022-08-03T14:43:09.157Z,1.85
2022-08-03T14:45:37.013Z,2.22
2022-08-03T14:50:33.073Z,1.70
2022-08-03T14:50:55.054Z,1.90
2022-08-03T14:53:24.282Z,1.92
2022-08-03T14:55:53.267Z,1.80
2022-08-03T14:58:21.970Z,2.00
2022-08-03T15:00:51.434Z,1.98
2022-08-03T15:03:22.991Z,2.00
2022-08-03T15:05:51.446Z,1.92
2022-08-03T15:08:19.054Z,1.73
2022-08-03T15:10:49.282Z,1.83
2022-08-03T15:13:17.518Z,1.70
2022-08-03T15:15:45.206Z,1.85
2022-08-03T15:18:12.891Z,1.70
2022-08-03T15:20:44.818Z,1.85
2022-08-03T15:23:13.899Z,1.90
2022-08-03T15:26:27.917Z,1.80
2022-08-03T15:28:31.459Z,1.50
2022-08-03T15:30:59.373Z,1.85
2022-08-03T15:33:27.034Z,1.70
2022-08-03T15:35:55.114Z,1.60
2022-08-03T15:38:25.678Z,1.95
2022-08-03T15:43:22.236Z,1.83
2022-08-03T15:46:19.207Z,1.88
2022-08-03T15:48:39.042Z,1.70
2022-08-03T15:51:07.318Z,2.00
2022-08-03T15:53:35.192Z,1.92
2022-08-03T15:56:09.408Z,1.90
2022-08-03T15:59:09.809Z,1.60
2022-08-03T16:01:28.463Z,1.75
2022-08-03T16:03:56.123Z,1.70
2022-08-03T16:06:29.846Z,1.67
2022-08-03T16:09:03.555Z,1.80
2022-08-03T16:11:31.339Z,1.90
2022-08-03T16:14:13.772Z,1.77
2022-08-03T16:16:48.211Z,1.88
2022-08-03T16:19:16.243Z,1.90
2022-08-03T16:21:48.300Z,2.08
2022-08-03T16:24:17.558Z,2.35
2022-08-03T16:26:47.780Z,2.20
2022-08-03T16:29:23.566Z,1.70
2022-08-03T16:31:53.400Z,1.80
2022-08-03T16:34:21.481Z,2.10
2022-08-03T16:36:49.106Z,2.08
2022-08-03T16:39:16.757Z,2.00
2022-08-03T16:41:54.291Z,1.90
2022-08-03T16:44:30.625Z,1.90
2022-08-03T16:46:59.875Z,1.70
2022-08-03T16:49:54.628Z,1.80
2022-08-03T16:52:16.795Z,2.05
2022-08-03T16:54:52.674Z,1.60
2022-08-03T16:57:55.872Z,1.85
2022-08-03T17:00:11.752Z,1.60
2022-08-03T17:02:43.065Z,2.00
2022-08-03T17:05:16.106Z,2.00
2022-08-03T17:07:46.816Z,1.85
2022-08-03T17:10:27.462Z,2.00
2022-08-03T17:12:55.455Z,1.70
2022-08-03T17:15:51.697Z,1.80
2022-08-03T17:18:18.120Z,1.92
2022-08-03T17:20:50.835Z,1.80
2022-08-03T17:23:35.980Z,1.60
2022-08-03T17:26:10.613Z,1.83
2022-08-03T17:28:50.193Z,1.80
2022-08-03T17:31:31.142Z,1.70
2022-08-03T17:34:04.616Z,1.70
2022-08-03T17:37:02.812Z,1.90
2022-08-03T17:39:48.471Z,1.90
2022-08-03T17:42:29.384Z,1.85
2022-08-03T17:45:01.723Z,2.97
2022-08-03T17:47:42.752Z,3.17
2022-08-03T17:50:24.235Z,4.38
2022-08-03T17:53:01.218Z,3.03
2022-08-03T17:55:56.628Z,2.30
2022-08-03T17:58:37.802Z,2.40
2022-08-03T18:02:03.318Z,1.80
2022-08-03T18:04:30.202Z,1.67
2022-08-03T18:07:11.110Z,1.90
2022-08-03T18:10:04.900Z,1.60
2022-08-03T18:12:48.045Z,1.63
2022-08-03T18:15:26.087Z,1.60
2022-08-03T18:20:45.682Z,1.50
2022-08-03T18:23:25.305Z,1.50
2022-08-03T18:26:06.998Z,1.92
2022-08-03T18:28:36.171Z,1.60
2022-08-03T18:31:06.044Z,1.77
2022-08-03T18:34:17.823Z,1.85
2022-08-03T18:39:02.705Z,1.60
2022-08-03T18:41:33.439Z,1.83
2022-08-03T18:44:08.660Z,1.83
2022-08-03T18:47:07.553Z,1.60
2022-08-03T18:49:42.927Z,1.70
2022-08-03T18:52:17.638Z,2.08
2022-08-03T18:55:02.814Z,1.80
2022-08-03T18:57:43.856Z,1.50
2022-08-03T19:00:16.013Z,2.03
2022-08-03T19:02:49.997Z,1.88
2022-08-03T19:05:20.441Z,1.80
2022-08-03T19:07:59.859Z,1.63
2022-08-03T19:10:32.393Z,1.83
2022-08-03T19:13:04.871Z,1.70
2022-08-03T19:15:51.298Z,1.60
2022-08-03T19:18:21.756Z,1.65
2022-08-03T19:20:53.198Z,1.70
2022-08-03T19:23:24.887Z,1.60
2022-08-03T19:25:54.251Z,1.50
2022-08-03T19:28:29.782Z,1.40
2022-08-03T19:31:02.645Z,1.65
2022-08-03T19:33:56.702Z,1.42
2022-08-03T19:36:26.554Z,1.70
2022-08-03T19:38:57.026Z,1.40
2022-08-03T19:41:31.132Z,1.50
2022-08-03T19:44:11.508Z,1.70
2022-08-03T19:46:48.147Z,1.40
2022-08-03T19:49:17.789Z,1.50
2022-08-03T19:52:00.737Z,1.60
2022-08-03T19:54:45.644Z,1.50
2022-08-03T19:57:26.826Z,2.00
2022-08-03T19:59:56.219Z,1.65
2022-08-03T20:02:27.250Z,1.70
2022-08-03T20:04:57.432Z,1.60
2022-08-03T20:07:25.876Z,1.90
2022-08-03T20:09:54.434Z,1.73
2022-08-03T20:12:28.083Z,2.17
2022-08-03T20:14:57.346Z,1.80
2022-08-03T20:17:54.555Z,1.65
2022-08-03T20:20:13.567Z,2.00
2022-08-03T20:22:45.490Z,1.90
2022-08-03T20:28:13.774Z,1.90
2022-08-03T20:30:44.214Z,2.00
2022-08-03T20:33:12.266Z,2.00
2022-08-03T20:35:49.401Z,1.80
2022-08-03T20:38:18.906Z,2.10
2022-08-03T20:40:47.405Z,1.75
2022-08-03T20:43:16.845Z,1.80
2022-08-03T20:46:00.295Z,2.17
2022-08-03T20:48:36.696Z,2.00
2022-08-03T20:51:05.888Z,1.70
2022-08-03T20:53:59.537Z,2.00
2022-08-03T20:56:33.519Z,1.95
2022-08-03T20:59:04.905Z,1.83
2022-08-03T21:01:36.128Z,2.30
2022-08-03T21:04:06.951Z,2.25
2022-08-03T21:06:39.564Z,2.40
2022-08-03T21:09:08.596Z,2.10
2022-08-03T21:11:42.140Z,2.17
2022-08-03T21:13:05.681Z,1.80
2022-08-03T21:13:06.786Z,1.70
2022-08-03T21:14:16.844Z,2.58
2022-08-03T21:16:46.116Z,2.28
2022-08-03T21:19:15.501Z,2.47
2022-08-03T21:21:45.588Z,2.28
2022-08-03T21:24:16.551Z,2.40
2022-08-03T21:26:48.346Z,2.42
2022-08-03T21:31:46.421Z,3.03
2022-08-03T21:34:14.261Z,3.65
2022-08-03T21:36:42.311Z,3.75
2022-08-03T21:39:11.524Z,3.88
2022-08-03T21:41:40.739Z,3.97
2022-08-03T21:44:08.708Z,3.83
2022-08-03T21:46:40.064Z,4.30
2022-08-03T21:49:52.124Z,4.47
2022-08-03T21:52:00.391Z,4.35
2022-08-03T21:54:34.588Z,4.38
2022-08-03T21:57:05.150Z,4.63
2022-08-03T21:59:37.521Z,4.20
2022-08-03T22:02:11.523Z,3.80
2022-08-03T22:04:55.955Z,3.70
2022-08-03T22:07:26.050Z,3.70
2022-08-03T22:09:55.266Z,3.00
2022-08-03T22:12:24.528Z,2.90
2022-08-03T22:15:01.109Z,3.22
2022-08-03T22:17:55.263Z,2.85
2022-08-03T22:20:21.491Z,2.90
2022-08-03T22:22:55.931Z,2.42
2022-08-03T22:25:28.711Z,2.90
2022-08-03T22:27:57.302Z,2.83
2022-08-03T22:30:24.931Z,3.25
2022-08-03T22:32:56.346Z,2.60
2022-08-03T22:35:26.709Z,2.42
2022-08-03T22:37:55.989Z,2.67
2022-08-03T22:40:23.603Z,2.58
2022-08-03T22:42:52.272Z,2.50
2022-08-03T22:45:45.099Z,2.63
2022-08-03T22:48:09.661Z,2.30
2022-08-03T22:50:38.404Z,2.50
2022-08-03T22:53:07.719Z,2.30
2022-08-03T22:55:35.631Z,2.40
2022-08-03T22:58:03.565Z,2.30
2022-08-03T23:00:31.191Z,2.78
2022-08-03T23:03:03.013Z,2.65
2022-08-03T23:08:25.529Z,2.40
2022-08-03T23:10:56.989Z,2.40
2022-08-03T23:13:30.373Z,2.40
2022-08-03T23:16:01.358Z,2.40
2022-08-03T23:18:36.772Z,2.63
2022-08-03T23:21:11.232Z,2.10
2022-08-03T23:23:44.211Z,2.20
2022-08-03T23:26:13.629Z,2.30
2022-08-03T23:28:46.024Z,2.10
2022-08-03T23:31:15.229Z,2.17
2022-08-03T23:33:45.377Z,2.47
2022-08-03T23:36:30.526Z,2.30
2022-08-03T23:39:02.038Z,2.20
2022-08-03T23:41:30.461Z,2.50
2022-08-03T23:44:01.819Z,2.33
2022-08-03T23:46:31.738Z,2.60
2022-08-03T23:49:00.165Z,2.33
2022-08-03T23:51:42.171Z,2.40
2022-08-03T23:56:55.793Z,2.40
2022-08-03T23:59:33.088Z,2.30
